Terminal Aerodrome Forecast
Issued by NWS Cleveland, OH

Home | Current Version | Previous Version | Text Only | Print | Product List | Glossary Off
Versions: 1 2 3 4 5 6 7 8 9 10 11 12 13 14 15 16

000
FTUS41 KCLE 301900 AAA
TAFERI
TAF AMD
KERI 301954Z 3020/0118 35008KT 4SM -SHRA BR SCT005 OVC060
     FM010100 02005KT P6SM BKN015 OVC030
     FM010500 06005KT P6SM BKN030
     FM011000 01006KT P6SM SCT060=

USA.gov is the U.S. government's official web portal to all federal, state and local government web resources and services.